PWSweather.com
Personal Weather Stations
Station Observations
WD4JKH
Forsyth, GA 31029

Forsyth, GA 31029

Lat: 33.033225, Lon: -83.927995

Elevation: 709

Station Type: Davis Vantage VUE

High Low Average
Temperature 62.0°F16.7°C 38.4°F3.6°C 49.8°F9.9°C
Dew Point 32.8°F0.4°C 23.7°F-4.6°C 28.6°F-1.9°C
Winds 13.1 mph 21.1 kmh Calm Calm 4.0 mph E6.4 kmh E
Wind Gusts 22.0 mph35.4 kmh 3.0 mph4.8 kmh 10.0 mph16.1 kmh
Humidity 69% 27% 46%
Pressure 30.29 in1025.7 mb 30.15 in1021.0 mb -
Precipitation 0.00 in0.0 mm - -
Hour Temp Dew Point Humidity Winds Wind Gusts Pressure Precip Precip Rate Daily Precip Total
12:02 AM 47.4°F8.6°C 30.6°F-0.8°C 52% 2.2 mph NNW3.5 kmh NNW 9.0 mph14.5 kmh 30.14 in1020.7 mb 0.00 in0.0 mm 0.00 in0.0 mm 0.03 in0.8 mm
12:07 AM 47.4°F8.6°C 30.2°F-1.0°C 51% 3.3 mph NNW5.3 kmh NNW 9.0 mph14.5 kmh 30.14 in1020.7 mb 0.00 in0.0 mm 0.00 in0.0 mm 0.00 in0.0 mm
12:12 AM 47.3°F8.5°C 30.1°F-1.1°C 51% 2.0 mph N3.2 kmh N 9.0 mph14.5 kmh 30.14 in1020.7 mb 0.00 in0.0 mm 0.00 in0.0 mm 0.00 in0.0 mm
12:17 AM 47.1°F8.4°C 30.4°F-0.9°C 52% 2.6 mph NW4.2 kmh NW 9.0 mph14.5 kmh 30.14 in1020.7 mb 0.00 in0.0 mm 0.00 in0.0 mm 0.00 in0.0 mm
12:22 AM 47.0°F8.3°C 30.3°F-0.9°C 52% 2.5 mph N4.0 kmh N 9.0 mph14.5 kmh 30.14 in1020.7 mb 0.00 in0.0 mm 0.00 in0.0 mm 0.00 in0.0 mm
12:27 AM 46.9°F8.3°C 30.2°F-1.0°C 52% 2.1 mph NNE3.4 kmh NNE 7.0 mph11.3 kmh 30.15 in1021.0 mb 0.00 in0.0 mm 0.00 in0.0 mm 0.00 in0.0 mm
12:32 AM 46.7°F8.2°C 30.0°F-1.1°C 52% 1.9 mph N3.1 kmh N 7.0 mph11.3 kmh 30.14 in1020.7 mb 0.00 in0.0 mm 0.00 in0.0 mm 0.00 in0.0 mm
12:37 AM 46.5°F8.1°C 29.8°F-1.2°C 52% 2.0 mph N3.2 kmh N 6.0 mph9.7 kmh 30.15 in1021.0 mb 0.00 in0.0 mm 0.00 in0.0 mm 0.00 in0.0 mm
12:42 AM 46.4°F8.0°C 29.7°F-1.3°C 52% 2.1 mph N3.4 kmh N 6.0 mph9.7 kmh 30.15 in1021.0 mb 0.00 in0.0 mm 0.00 in0.0 mm 0.00 in0.0 mm
12:47 AM 46.3°F7.9°C 29.6°F-1.3°C 52% 3.1 mph N5.0 kmh N 8.0 mph12.9 kmh 30.15 in1021.0 mb 0.00 in0.0 mm 0.00 in0.0 mm 0.00 in0.0 mm
12:52 AM 46.1°F7.8°C 29.4°F-1.4°C 52% 2.0 mph N3.2 kmh N 8.0 mph12.9 kmh 30.15 in1021.0 mb 0.00 in0.0 mm 0.00 in0.0 mm 0.00 in0.0 mm
12:57 AM 45.9°F7.7°C 29.2°F-1.6°C 52% 1.7 mph N2.7 kmh N 8.0 mph12.9 kmh 30.15 in1021.0 mb 0.00 in0.0 mm 0.00 in0.0 mm 0.00 in0.0 mm
01:02 AM 45.7°F7.6°C 29.5°F-1.4°C 53% 1.4 mph N2.3 kmh N 8.0 mph12.9 kmh 30.15 in1021.0 mb 0.00 in0.0 mm 0.00 in0.0 mm 0.00 in0.0 mm
01:07 AM 45.5°F7.5°C 29.4°F-1.4°C 53% 2.2 mph N3.5 kmh N 5.0 mph8.0 kmh 30.15 in1021.0 mb 0.00 in0.0 mm 0.00 in0.0 mm 0.00 in0.0 mm
01:12 AM 45.4°F7.4°C 29.3°F-1.5°C 53% 1.8 mph NW2.9 kmh NW 7.0 mph11.3 kmh 30.16 in1021.3 mb 0.00 in0.0 mm 0.00 in0.0 mm 0.00 in0.0 mm
01:17 AM 45.1°F7.3°C 29.4°F-1.4°C 54% 1.7 mph N2.7 kmh N 7.0 mph11.3 kmh 30.16 in1021.3 mb 0.00 in0.0 mm 0.00 in0.0 mm 0.00 in0.0 mm
01:22 AM 45.0°F7.2°C 29.3°F-1.5°C 54% 2.5 mph NNW4.0 kmh NNW 7.0 mph11.3 kmh 30.16 in1021.3 mb 0.00 in0.0 mm 0.00 in0.0 mm 0.00 in0.0 mm
01:27 AM 44.8°F7.1°C 29.2°F-1.6°C 54% 1.6 mph NNW2.6 kmh NNW 7.0 mph11.3 kmh 30.16 in1021.3 mb 0.00 in0.0 mm 0.00 in0.0 mm 0.00 in0.0 mm
01:32 AM 44.7°F7.1°C 29.1°F-1.6°C 54% 1.7 mph N2.7 kmh N 6.0 mph9.7 kmh 30.16 in1021.3 mb 0.00 in0.0 mm 0.00 in0.0 mm 0.00 in0.0 mm
01:37 AM 44.6°F7.0°C 29.0°F-1.7°C 54% 2.3 mph NNW3.7 kmh NNW 6.0 mph9.7 kmh 30.16 in1021.3 mb 0.00 in0.0 mm 0.00 in0.0 mm 0.00 in0.0 mm
01:42 AM 44.4°F6.9°C 29.3°F-1.5°C 55% 1.2 mph N1.9 kmh N 6.0 mph9.7 kmh 30.15 in1021.0 mb 0.00 in0.0 mm 0.00 in0.0 mm 0.00 in0.0 mm
01:47 AM 44.3°F6.8°C 29.1°F-1.6°C 55% 1.3 mph N2.1 kmh N 6.0 mph9.7 kmh 30.16 in1021.3 mb 0.00 in0.0 mm 0.00 in0.0 mm 0.00 in0.0 mm
01:52 AM 44.3°F6.8°C 29.2°F-1.6°C 55% 1.5 mph N2.4 kmh N 6.0 mph9.7 kmh 30.15 in1021.0 mb 0.00 in0.0 mm 0.00 in0.0 mm 0.00 in0.0 mm
01:57 AM 44.1°F6.7°C 29.0°F-1.7°C 55% 1.1 mph NNW1.8 kmh NNW 4.0 mph6.4 kmh 30.15 in1021.0 mb 0.00 in0.0 mm 0.00 in0.0 mm 0.00 in0.0 mm
02:02 AM 44.0°F6.7°C 28.9°F-1.7°C 55% 1.4 mph N2.3 kmh N 5.0 mph8.0 kmh 30.15 in1021.0 mb 0.00 in0.0 mm 0.00 in0.0 mm 0.00 in0.0 mm
02:07 AM 43.9°F6.6°C 28.8°F-1.8°C 55% 1.9 mph NNE3.1 kmh NNE 5.0 mph8.0 kmh 30.15 in1021.0 mb 0.00 in0.0 mm 0.00 in0.0 mm 0.00 in0.0 mm
02:11 AM 43.9°F6.6°C 28.8°F-1.8°C 55% 1.4 mph N2.3 kmh N 5.0 mph8.0 kmh 30.16 in1021.3 mb 0.00 in0.0 mm 0.00 in0.0 mm 0.00 in0.0 mm
02:16 AM 43.8°F6.6°C 28.7°F-1.8°C 55% 1.7 mph N2.7 kmh N 6.0 mph9.7 kmh 30.16 in1021.3 mb 0.00 in0.0 mm 0.00 in0.0 mm 0.00 in0.0 mm
02:21 AM 43.7°F6.5°C 29.1°F-1.6°C 56% 1.6 mph NNE2.6 kmh NNE 6.0 mph9.7 kmh 30.16 in1021.3 mb 0.00 in0.0 mm 0.00 in0.0 mm 0.00 in0.0 mm
02:26 AM 43.7°F6.5°C 28.6°F-1.9°C 55% 2.5 mph NNE4.0 kmh NNE 6.0 mph9.7 kmh 30.16 in1021.3 mb 0.00 in0.0 mm 0.00 in0.0 mm 0.00 in0.0 mm
02:31 AM 43.7°F6.5°C 28.6°F-1.9°C 55% 2.1 mph NNE3.4 kmh NNE 5.0 mph8.0 kmh 30.16 in1021.3 mb 0.00 in0.0 mm 0.00 in0.0 mm 0.00 in0.0 mm
02:36 AM 43.7°F6.5°C 28.6°F-1.9°C 55% 1.7 mph NNW2.7 kmh NNW 5.0 mph8.0 kmh 30.16 in1021.3 mb 0.00 in0.0 mm 0.00 in0.0 mm 0.00 in0.0 mm
02:41 AM 43.6°F6.4°C 28.5°F-1.9°C 55% 1.8 mph NNE2.9 kmh NNE 5.0 mph8.0 kmh 30.17 in1021.7 mb 0.00 in0.0 mm 0.00 in0.0 mm 0.00 in0.0 mm
02:46 AM 43.6°F6.4°C 28.5°F-1.9°C 55% 1.5 mph N2.4 kmh N 5.0 mph8.0 kmh 30.16 in1021.3 mb 0.00 in0.0 mm 0.00 in0.0 mm 0.00 in0.0 mm
02:51 AM 43.5°F6.4°C 28.9°F-1.7°C 56% 1.7 mph N2.7 kmh N 5.0 mph8.0 kmh 30.16 in1021.3 mb 0.00 in0.0 mm 0.00 in0.0 mm 0.00 in0.0 mm
02:56 AM 43.3°F6.3°C 28.7°F-1.8°C 56% 1.4 mph NNE2.3 kmh NNE 5.0 mph8.0 kmh 30.16 in1021.3 mb 0.00 in0.0 mm 0.00 in0.0 mm 0.00 in0.0 mm
03:01 AM 43.2°F6.2°C 28.6°F-1.9°C 56% 1.7 mph N2.7 kmh N 5.0 mph8.0 kmh 30.16 in1021.3 mb 0.00 in0.0 mm 0.00 in0.0 mm 0.00 in0.0 mm
03:06 AM 43.1°F6.2°C 28.5°F-1.9°C 56% 1.4 mph NE2.3 kmh NE 5.0 mph8.0 kmh 30.17 in1021.7 mb 0.00 in0.0 mm 0.00 in0.0 mm 0.00 in0.0 mm
03:11 AM 43.0°F6.1°C 28.8°F-1.8°C 57% 1.0 mph NE1.6 kmh NE 4.0 mph6.4 kmh 30.16 in1021.3 mb 0.00 in0.0 mm 0.00 in0.0 mm 0.00 in0.0 mm
03:16 AM 43.0°F6.1°C 28.8°F-1.8°C 57% 1.0 mph NE1.6 kmh NE 3.0 mph4.8 kmh 30.16 in1021.3 mb 0.00 in0.0 mm 0.00 in0.0 mm 0.00 in0.0 mm
03:21 AM 42.9°F6.1°C 28.8°F-1.8°C 57% 1.5 mph NNE2.4 kmh NNE 3.0 mph4.8 kmh 30.16 in1021.3 mb 0.00 in0.0 mm 0.00 in0.0 mm 0.00 in0.0 mm
03:26 AM 42.8°F6.0°C 28.6°F-1.9°C 57% 1.8 mph N2.9 kmh N 5.0 mph8.0 kmh 30.16 in1021.3 mb 0.00 in0.0 mm 0.00 in0.0 mm 0.00 in0.0 mm
03:31 AM 42.6°F5.9°C 28.8°F-1.8°C 58% 1.0 mph N1.6 kmh N 5.0 mph8.0 kmh 30.16 in1021.3 mb 0.00 in0.0 mm 0.00 in0.0 mm 0.00 in0.0 mm
03:36 AM 42.5°F5.8°C 28.8°F-1.8°C 58% 1.8 mph NNE2.9 kmh NNE 5.0 mph8.0 kmh 30.16 in1021.3 mb 0.00 in0.0 mm 0.00 in0.0 mm 0.00 in0.0 mm
03:41 AM 42.4°F5.8°C 28.7°F-1.8°C 58% 1.6 mph N2.6 kmh N 5.0 mph8.0 kmh 30.17 in1021.7 mb 0.00 in0.0 mm 0.00 in0.0 mm 0.00 in0.0 mm
03:46 AM 42.3°F5.7°C 28.6°F-1.9°C 58% 2.1 mph NNE3.4 kmh NNE 5.0 mph8.0 kmh 30.17 in1021.7 mb 0.00 in0.0 mm 0.00 in0.0 mm 0.00 in0.0 mm
03:51 AM 42.1°F5.6°C 28.9°F-1.7°C 59% 1.5 mph N2.4 kmh N 5.0 mph8.0 kmh 30.17 in1021.7 mb 0.00 in0.0 mm 0.00 in0.0 mm 0.00 in0.0 mm
03:56 AM 42.0°F5.6°C 28.8°F-1.8°C 59% 1.2 mph NNE1.9 kmh NNE 5.0 mph8.0 kmh 30.17 in1021.7 mb 0.00 in0.0 mm 0.00 in0.0 mm 0.00 in0.0 mm
04:01 AM 41.8°F5.4°C 28.5°F-1.9°C 59% 1.6 mph N2.6 kmh N 4.0 mph6.4 kmh 30.17 in1021.7 mb 0.00 in0.0 mm 0.00 in0.0 mm 0.00 in0.0 mm
04:06 AM 41.8°F5.4°C 29.0°F-1.7°C 60% 1.5 mph NNE2.4 kmh NNE 4.0 mph6.4 kmh 30.17 in1021.7 mb 0.00 in0.0 mm 0.00 in0.0 mm 0.00 in0.0 mm
04:11 AM 41.7°F5.4°C 28.9°F-1.7°C 60% 1.3 mph NNE2.1 kmh NNE 4.0 mph6.4 kmh 30.17 in1021.7 mb 0.00 in0.0 mm 0.00 in0.0 mm 0.00 in0.0 mm
04:16 AM 41.5°F5.3°C 28.6°F-1.9°C 60% 1.2 mph NNE1.9 kmh NNE 4.0 mph6.4 kmh 30.17 in1021.7 mb 0.00 in0.0 mm 0.00 in0.0 mm 0.00 in0.0 mm
04:21 AM 41.3°F5.2°C 28.9°F-1.7°C 61% 1.2 mph NNE1.9 kmh NNE 3.0 mph4.8 kmh 30.17 in1021.7 mb 0.00 in0.0 mm 0.00 in0.0 mm 0.00 in0.0 mm
04:26 AM 41.2°F5.1°C 28.8°F-1.8°C 61% 1.8 mph NE2.9 kmh NE 3.0 mph4.8 kmh 30.17 in1021.7 mb 0.00 in0.0 mm 0.00 in0.0 mm 0.00 in0.0 mm
04:31 AM 41.1°F5.1°C 29.1°F-1.6°C 62% 2.1 mph NNE3.4 kmh NNE 4.0 mph6.4 kmh 30.17 in1021.7 mb 0.00 in0.0 mm 0.00 in0.0 mm 0.00 in0.0 mm
04:36 AM 40.8°F4.9°C 29.3°F-1.5°C 63% 2.0 mph NNE3.2 kmh NNE 5.0 mph8.0 kmh 30.17 in1021.7 mb 0.00 in0.0 mm 0.00 in0.0 mm 0.00 in0.0 mm
04:41 AM 40.6°F4.8°C 29.5°F-1.4°C 64% 1.6 mph NE2.6 kmh NE 5.0 mph8.0 kmh 30.17 in1021.7 mb 0.00 in0.0 mm 0.00 in0.0 mm 0.00 in0.0 mm
04:46 AM 40.4°F4.7°C 29.3°F-1.5°C 64% 2.1 mph NE3.4 kmh NE 5.0 mph8.0 kmh 30.17 in1021.7 mb 0.00 in0.0 mm 0.00 in0.0 mm 0.00 in0.0 mm
04:51 AM 40.3°F4.6°C 29.1°F-1.6°C 64% 2.7 mph NNE4.3 kmh NNE 5.0 mph8.0 kmh 30.17 in1021.7 mb 0.00 in0.0 mm 0.00 in0.0 mm 0.00 in0.0 mm
04:56 AM 40.1°F4.5°C 29.0°F-1.7°C 64% 1.6 mph NNE2.6 kmh NNE 5.0 mph8.0 kmh 30.17 in1021.7 mb 0.00 in0.0 mm 0.00 in0.0 mm 0.00 in0.0 mm
05:01 AM 40.0°F4.4°C 28.9°F-1.7°C 64% 2.3 mph N3.7 kmh N 5.0 mph8.0 kmh 30.17 in1021.7 mb 0.00 in0.0 mm 0.00 in0.0 mm 0.00 in0.0 mm
05:06 AM 40.0°F4.4°C 28.8°F-1.8°C 64% 1.8 mph NNE2.9 kmh NNE 5.0 mph8.0 kmh 30.17 in1021.7 mb 0.00 in0.0 mm 0.00 in0.0 mm 0.00 in0.0 mm
05:11 AM 40.0°F4.4°C 28.5°F-1.9°C 63% 2.2 mph NNE3.5 kmh NNE 6.0 mph9.7 kmh 30.17 in1021.7 mb 0.00 in0.0 mm 0.00 in0.0 mm 0.00 in0.0 mm
05:16 AM 40.1°F4.5°C 28.6°F-1.9°C 63% 2.2 mph N3.5 kmh N 7.0 mph11.3 kmh 30.17 in1021.7 mb 0.00 in0.0 mm 0.00 in0.0 mm 0.00 in0.0 mm
05:21 AM 40.1°F4.5°C 28.6°F-1.9°C 63% 1.5 mph N2.4 kmh N 8.0 mph12.9 kmh 30.17 in1021.7 mb 0.00 in0.0 mm 0.00 in0.0 mm 0.00 in0.0 mm
05:26 AM 40.0°F4.4°C 28.9°F-1.7°C 64% 2.0 mph N3.2 kmh N 8.0 mph12.9 kmh 30.17 in1021.7 mb 0.00 in0.0 mm 0.00 in0.0 mm 0.00 in0.0 mm
05:31 AM 39.9°F4.4°C 28.8°F-1.8°C 64% 2.2 mph N3.5 kmh N 8.0 mph12.9 kmh 30.18 in1022.0 mb 0.00 in0.0 mm 0.00 in0.0 mm 0.00 in0.0 mm
05:36 AM 39.8°F4.3°C 28.7°F-1.8°C 64% 1.0 mph NE1.6 kmh NE 8.0 mph12.9 kmh 30.18 in1022.0 mb 0.00 in0.0 mm 0.00 in0.0 mm 0.00 in0.0 mm
05:41 AM 39.7°F4.3°C 28.6°F-1.9°C 64% 1.2 mph N1.9 kmh N 5.0 mph8.0 kmh 30.18 in1022.0 mb 0.00 in0.0 mm 0.00 in0.0 mm 0.00 in0.0 mm
05:46 AM 39.7°F4.3°C 28.5°F-1.9°C 64% 1.1 mph NNE1.8 kmh NNE 5.0 mph8.0 kmh 30.18 in1022.0 mb 0.00 in0.0 mm 0.00 in0.0 mm 0.00 in0.0 mm
05:51 AM 39.6°F4.2°C 28.9°F-1.7°C 65% 1.3 mph N2.1 kmh N 3.0 mph4.8 kmh 30.18 in1022.0 mb 0.00 in0.0 mm 0.00 in0.0 mm 0.00 in0.0 mm
05:56 AM 39.6°F4.2°C 28.9°F-1.7°C 65% 2.2 mph NNE3.5 kmh NNE 6.0 mph9.7 kmh 30.18 in1022.0 mb 0.00 in0.0 mm 0.00 in0.0 mm 0.00 in0.0 mm
06:01 AM 39.6°F4.2°C 28.9°F-1.7°C 65% 1.3 mph N2.1 kmh N 6.0 mph9.7 kmh 30.19 in1022.4 mb 0.00 in0.0 mm 0.00 in0.0 mm 0.00 in0.0 mm
06:06 AM 39.6°F4.2°C 28.9°F-1.7°C 65% 1.3 mph NNE2.1 kmh NNE 6.0 mph9.7 kmh 30.19 in1022.4 mb 0.00 in0.0 mm 0.00 in0.0 mm 0.00 in0.0 mm
06:11 AM 39.6°F4.2°C 28.8°F-1.8°C 65% 1.8 mph NNE2.9 kmh NNE 6.0 mph9.7 kmh 30.19 in1022.4 mb 0.00 in0.0 mm 0.00 in0.0 mm 0.00 in0.0 mm
06:16 AM 39.6°F4.2°C 28.9°F-1.7°C 65% 1.9 mph NNE3.1 kmh NNE 4.0 mph6.4 kmh 30.19 in1022.4 mb 0.00 in0.0 mm 0.00 in0.0 mm 0.00 in0.0 mm
06:21 AM 39.6°F4.2°C 28.9°F-1.7°C 65% 1.2 mph N1.9 kmh N 4.0 mph6.4 kmh 30.19 in1022.4 mb 0.00 in0.0 mm 0.00 in0.0 mm 0.00 in0.0 mm
06:26 AM 39.5°F4.2°C 28.7°F-1.8°C 65% 1.8 mph NE2.9 kmh NE 4.0 mph6.4 kmh 30.20 in1022.7 mb 0.00 in0.0 mm 0.00 in0.0 mm 0.00 in0.0 mm
06:31 AM 39.4°F4.1°C 29.1°F-1.6°C 66% 1.9 mph NNE3.1 kmh NNE 5.0 mph8.0 kmh 30.20 in1022.7 mb 0.00 in0.0 mm 0.00 in0.0 mm 0.00 in0.0 mm
06:36 AM 39.2°F4.0°C 28.9°F-1.7°C 66% 1.7 mph NNE2.7 kmh NNE 5.0 mph8.0 kmh 30.20 in1022.7 mb 0.00 in0.0 mm 0.00 in0.0 mm 0.00 in0.0 mm
06:41 AM 39.1°F3.9°C 29.1°F-1.6°C 67% 1.6 mph NNE2.6 kmh NNE 5.0 mph8.0 kmh 30.20 in1022.7 mb 0.00 in0.0 mm 0.00 in0.0 mm 0.00 in0.0 mm
06:46 AM 39.0°F3.9°C 29.0°F-1.7°C 67% 1.7 mph N2.7 kmh N 6.0 mph9.7 kmh 30.20 in1022.7 mb 0.00 in0.0 mm 0.00 in0.0 mm 0.00 in0.0 mm
06:51 AM 38.9°F3.8°C 29.0°F-1.7°C 67% 2.2 mph NNE3.5 kmh NNE 6.0 mph9.7 kmh 30.20 in1022.7 mb 0.00 in0.0 mm 0.00 in0.0 mm 0.00 in0.0 mm
06:56 AM 38.8°F3.8°C 28.8°F-1.8°C 67% 2.5 mph NNE4.0 kmh NNE 6.0 mph9.7 kmh 30.21 in1023.0 mb 0.00 in0.0 mm 0.00 in0.0 mm 0.00 in0.0 mm
07:01 AM 38.8°F3.8°C 29.2°F-1.6°C 68% 1.5 mph NNE2.4 kmh NNE 6.0 mph9.7 kmh 30.21 in1023.0 mb 0.00 in0.0 mm 0.00 in0.0 mm 0.00 in0.0 mm
07:06 AM 38.7°F3.7°C 29.1°F-1.6°C 68% 2.5 mph NE4.0 kmh NE 6.0 mph9.7 kmh 30.21 in1023.0 mb 0.00 in0.0 mm 0.00 in0.0 mm 0.00 in0.0 mm
07:11 AM 38.8°F3.8°C 28.9°F-1.7°C 67% 2.4 mph NE3.9 kmh NE 7.0 mph11.3 kmh 30.22 in1023.4 mb 0.00 in0.0 mm 0.00 in0.0 mm 0.00 in0.0 mm
07:16 AM 38.7°F3.7°C 29.1°F-1.6°C 68% 2.5 mph NE4.0 kmh NE 7.0 mph11.3 kmh 30.22 in1023.4 mb 0.00 in0.0 mm 0.00 in0.0 mm 0.00 in0.0 mm
07:21 AM 38.7°F3.7°C 28.7°F-1.8°C 67% 2.6 mph NE4.2 kmh NE 7.0 mph11.3 kmh 30.22 in1023.4 mb 0.00 in0.0 mm 0.00 in0.0 mm 0.00 in0.0 mm
07:26 AM 38.7°F3.7°C 28.8°F-1.8°C 67% 3.4 mph NNE5.5 kmh NNE 7.0 mph11.3 kmh 30.22 in1023.4 mb 0.00 in0.0 mm 0.00 in0.0 mm 0.00 in0.0 mm
07:31 AM 38.6°F3.7°C 29.0°F-1.7°C 68% 2.5 mph NE4.0 kmh NE 8.0 mph12.9 kmh 30.22 in1023.4 mb 0.00 in0.0 mm 0.00 in0.0 mm 0.00 in0.0 mm
07:36 AM 38.6°F3.7°C 28.9°F-1.7°C 68% 3.1 mph NE5.0 kmh NE 8.0 mph12.9 kmh 30.23 in1023.7 mb 0.00 in0.0 mm 0.00 in0.0 mm 0.00 in0.0 mm
07:41 AM 38.5°F3.6°C 28.9°F-1.7°C 68% 1.7 mph NE2.7 kmh NE 8.0 mph12.9 kmh 30.23 in1023.7 mb 0.00 in0.0 mm 0.00 in0.0 mm 0.00 in0.0 mm
07:46 AM 38.5°F3.6°C 29.3°F-1.5°C 69% 2.3 mph NE3.7 kmh NE 8.0 mph12.9 kmh 30.24 in1024.0 mb 0.00 in0.0 mm 0.00 in0.0 mm 0.00 in0.0 mm
07:51 AM 38.4°F3.6°C 29.2°F-1.6°C 69% 3.3 mph NE5.3 kmh NE 8.0 mph12.9 kmh 30.24 in1024.0 mb 0.00 in0.0 mm 0.00 in0.0 mm 0.00 in0.0 mm
07:56 AM 38.4°F3.6°C 29.2°F-1.6°C 69% 2.6 mph NNE4.2 kmh NNE 8.0 mph12.9 kmh 30.24 in1024.0 mb 0.00 in0.0 mm 0.00 in0.0 mm 0.00 in0.0 mm
08:01 AM 38.4°F3.6°C 29.1°F-1.6°C 69% 2.6 mph NE4.2 kmh NE 8.0 mph12.9 kmh 30.25 in1024.4 mb 0.00 in0.0 mm 0.00 in0.0 mm 0.00 in0.0 mm
08:06 AM 38.5°F3.6°C 29.3°F-1.5°C 69% 3.6 mph NE5.8 kmh NE 8.0 mph12.9 kmh 30.25 in1024.4 mb 0.00 in0.0 mm 0.00 in0.0 mm 0.00 in0.0 mm
08:10 AM 38.5°F3.6°C 29.3°F-1.5°C 69% 4.1 mph NE6.6 kmh NE 9.0 mph14.5 kmh 30.25 in1024.4 mb 0.00 in0.0 mm 0.00 in0.0 mm 0.00 in0.0 mm
08:15 AM 38.6°F3.7°C 29.0°F-1.7°C 68% 5.1 mph NE8.2 kmh NE 9.0 mph14.5 kmh 30.25 in1024.4 mb 0.00 in0.0 mm 0.00 in0.0 mm 0.00 in0.0 mm
08:20 AM 38.7°F3.7°C 29.1°F-1.6°C 68% 3.8 mph NE6.1 kmh NE 9.0 mph14.5 kmh 30.26 in1024.7 mb 0.00 in0.0 mm 0.00 in0.0 mm 0.00 in0.0 mm
08:25 AM 38.8°F3.8°C 29.6°F-1.3°C 69% 4.2 mph NE6.8 kmh NE 9.0 mph14.5 kmh 30.26 in1024.7 mb 0.00 in0.0 mm 0.00 in0.0 mm 0.00 in0.0 mm
08:30 AM 38.8°F3.8°C 29.2°F-1.6°C 68% 5.2 mph NE8.4 kmh NE 9.0 mph14.5 kmh 30.26 in1024.7 mb 0.00 in0.0 mm 0.00 in0.0 mm 0.00 in0.0 mm
08:35 AM 39.0°F3.9°C 29.4°F-1.4°C 68% 4.4 mph NE7.1 kmh NE 9.0 mph14.5 kmh 30.26 in1024.7 mb 0.00 in0.0 mm 0.00 in0.0 mm 0.00 in0.0 mm
08:40 AM 39.1°F3.9°C 29.5°F-1.4°C 68% 4.4 mph NE7.1 kmh NE 9.0 mph14.5 kmh 30.26 in1024.7 mb 0.00 in0.0 mm 0.00 in0.0 mm 0.00 in0.0 mm
08:45 AM 39.3°F4.1°C 29.7°F-1.3°C 68% 4.5 mph NE7.2 kmh NE 9.0 mph14.5 kmh 30.26 in1024.7 mb 0.00 in0.0 mm 0.00 in0.0 mm 0.00 in0.0 mm
08:50 AM 39.5°F4.2°C 29.4°F-1.4°C 67% 5.3 mph NE8.5 kmh NE 9.0 mph14.5 kmh 30.27 in1025.1 mb 0.00 in0.0 mm 0.00 in0.0 mm 0.00 in0.0 mm
08:55 AM 39.7°F4.3°C 29.6°F-1.3°C 67% 4.3 mph NE6.9 kmh NE 9.0 mph14.5 kmh 30.26 in1024.7 mb 0.00 in0.0 mm 0.00 in0.0 mm 0.00 in0.0 mm
09:00 AM 39.9°F4.4°C 29.5°F-1.4°C 66% 6.7 mph NE10.8 kmh NE 11.0 mph17.7 kmh 30.27 in1025.1 mb 0.00 in0.0 mm 0.00 in0.0 mm 0.00 in0.0 mm
09:05 AM 40.1°F4.5°C 29.3°F-1.5°C 65% 5.7 mph NE9.2 kmh NE 11.0 mph17.7 kmh 30.26 in1024.7 mb 0.00 in0.0 mm 0.00 in0.0 mm 0.00 in0.0 mm
09:10 AM 40.4°F4.7°C 29.6°F-1.3°C 65% 4.8 mph NE7.7 kmh NE 11.0 mph17.7 kmh 30.26 in1024.7 mb 0.00 in0.0 mm 0.00 in0.0 mm 0.00 in0.0 mm
09:15 AM 40.5°F4.7°C 29.3°F-1.5°C 64% 6.4 mph NE10.3 kmh NE 13.0 mph20.9 kmh 30.27 in1025.1 mb 0.00 in0.0 mm 0.00 in0.0 mm 0.00 in0.0 mm
09:20 AM 40.7°F4.8°C 29.2°F-1.6°C 63% 7.2 mph NE11.6 kmh NE 13.0 mph20.9 kmh 30.27 in1025.1 mb 0.00 in0.0 mm 0.00 in0.0 mm 0.00 in0.0 mm
09:25 AM 41.0°F5.0°C 29.0°F-1.7°C 62% 7.7 mph NE12.4 kmh NE 15.0 mph24.1 kmh 30.26 in1024.7 mb 0.00 in0.0 mm 0.00 in0.0 mm 0.00 in0.0 mm
09:30 AM 41.2°F5.1°C 28.8°F-1.8°C 61% 8.6 mph ENE13.8 kmh ENE 15.0 mph24.1 kmh 30.27 in1025.1 mb 0.00 in0.0 mm 0.00 in0.0 mm 0.00 in0.0 mm
09:35 AM 41.6°F5.3°C 29.6°F-1.3°C 62% 3.3 mph ENE5.3 kmh ENE 15.0 mph24.1 kmh 30.26 in1024.7 mb 0.00 in0.0 mm 0.00 in0.0 mm 0.00 in0.0 mm
09:40 AM 41.9°F5.5°C 29.0°F-1.7°C 60% 6.3 mph NE10.1 kmh NE 15.0 mph24.1 kmh 30.26 in1024.7 mb 0.00 in0.0 mm 0.00 in0.0 mm 0.00 in0.0 mm
09:45 AM 42.3°F5.7°C 28.6°F-1.9°C 58% 9.1 mph NE14.6 kmh NE 15.0 mph24.1 kmh 30.26 in1024.7 mb 0.00 in0.0 mm 0.00 in0.0 mm 0.00 in0.0 mm
09:50 AM 42.8°F6.0°C 29.0°F-1.7°C 58% 4.2 mph NE6.8 kmh NE 15.0 mph24.1 kmh 30.26 in1024.7 mb 0.00 in0.0 mm 0.00 in0.0 mm 0.00 in0.0 mm
09:55 AM 43.2°F6.2°C 28.6°F-1.9°C 56% 7.7 mph NE12.4 kmh NE 16.0 mph25.7 kmh 30.26 in1024.7 mb 0.00 in0.0 mm 0.00 in0.0 mm 0.00 in0.0 mm
10:00 AM 43.5°F6.4°C 28.4°F-2.0°C 55% 6.4 mph NE10.3 kmh NE 16.0 mph25.7 kmh 30.27 in1025.1 mb 0.00 in0.0 mm 0.00 in0.0 mm 0.00 in0.0 mm
10:05 AM 43.8°F6.6°C 28.2°F-2.1°C 54% 6.6 mph NE10.6 kmh NE 16.0 mph25.7 kmh 30.27 in1025.1 mb 0.00 in0.0 mm 0.00 in0.0 mm 0.00 in0.0 mm
10:10 AM 44.1°F6.7°C 28.5°F-1.9°C 54% 4.3 mph NE6.9 kmh NE 16.0 mph25.7 kmh 30.27 in1025.1 mb 0.00 in0.0 mm 0.00 in0.0 mm 0.00 in0.0 mm
10:15 AM 44.4°F6.9°C 27.4°F-2.6°C 51% 8.0 mph ENE12.9 kmh ENE 18.0 mph29.0 kmh 30.28 in1025.4 mb 0.00 in0.0 mm 0.00 in0.0 mm 0.00 in0.0 mm
10:20 AM 44.6°F7.0°C 27.6°F-2.4°C 51% 8.2 mph NE13.2 kmh NE 18.0 mph29.0 kmh 30.28 in1025.4 mb 0.00 in0.0 mm 0.00 in0.0 mm 0.00 in0.0 mm
10:25 AM 45.0°F7.2°C 26.9°F-2.8°C 49% 8.0 mph ENE12.9 kmh ENE 18.0 mph29.0 kmh 30.28 in1025.4 mb 0.00 in0.0 mm 0.00 in0.0 mm 0.00 in0.0 mm
10:30 AM 45.4°F7.4°C 27.8°F-2.3°C 50% 5.7 mph ENE9.2 kmh ENE 20.0 mph32.2 kmh 30.28 in1025.4 mb 0.00 in0.0 mm 0.00 in0.0 mm 0.00 in0.0 mm
10:35 AM 45.8°F7.7°C 27.2°F-2.7°C 48% 7.4 mph ENE11.9 kmh ENE 20.0 mph32.2 kmh 30.28 in1025.4 mb 0.00 in0.0 mm 0.00 in0.0 mm 0.00 in0.0 mm
10:40 AM 45.9°F7.7°C 27.2°F-2.7°C 48% 6.1 mph ENE9.8 kmh ENE 20.0 mph32.2 kmh 30.28 in1025.4 mb 0.00 in0.0 mm 0.00 in0.0 mm 0.00 in0.0 mm
10:45 AM 46.0°F7.8°C 26.3°F-3.2°C 46% 13.1 mph ENE21.1 kmh ENE 21.0 mph33.8 kmh 30.29 in1025.7 mb 0.00 in0.0 mm 0.00 in0.0 mm 0.00 in0.0 mm
10:50 AM 46.4°F8.0°C 26.1°F-3.3°C 45% 9.1 mph E14.6 kmh E 21.0 mph33.8 kmh 30.29 in1025.7 mb 0.00 in0.0 mm 0.00 in0.0 mm 0.00 in0.0 mm
10:55 AM 46.6°F8.1°C 26.3°F-3.2°C 45% 7.8 mph ENE12.6 kmh ENE 21.0 mph33.8 kmh 30.29 in1025.7 mb 0.00 in0.0 mm 0.00 in0.0 mm 0.00 in0.0 mm
11:00 AM 47.2°F8.4°C 26.8°F-2.9°C 45% 5.9 mph NE9.5 kmh NE 21.0 mph33.8 kmh 30.29 in1025.7 mb 0.00 in0.0 mm 0.00 in0.0 mm 0.00 in0.0 mm
11:05 AM 47.9°F8.8°C 26.9°F-2.8°C 44% 9.2 mph NE14.8 kmh NE 17.0 mph27.4 kmh 30.29 in1025.7 mb 0.00 in0.0 mm 0.00 in0.0 mm 0.00 in0.0 mm
11:10 AM 47.7°F8.7°C 26.1°F-3.3°C 43% 8.6 mph NE13.8 kmh NE 17.0 mph27.4 kmh 30.29 in1025.7 mb 0.00 in0.0 mm 0.00 in0.0 mm 0.00 in0.0 mm
11:15 AM 48.1°F8.9°C 27.2°F-2.7°C 44% 6.8 mph NE10.9 kmh NE 19.0 mph30.6 kmh 30.29 in1025.7 mb 0.00 in0.0 mm 0.00 in0.0 mm 0.00 in0.0 mm
11:20 AM 47.9°F8.8°C 25.9°F-3.4°C 42% 9.7 mph NE15.6 kmh NE 22.0 mph35.4 kmh 30.29 in1025.7 mb 0.00 in0.0 mm 0.00 in0.0 mm 0.00 in0.0 mm
11:25 AM 48.6°F9.2°C 26.4°F-3.1°C 42% 7.0 mph ENE11.3 kmh ENE 22.0 mph35.4 kmh 30.29 in1025.7 mb 0.00 in0.0 mm 0.00 in0.0 mm 0.00 in0.0 mm
11:30 AM 48.4°F9.1°C 25.6°F-3.6°C 41% 7.5 mph ENE12.1 kmh ENE 22.0 mph35.4 kmh 30.28 in1025.4 mb 0.00 in0.0 mm 0.00 in0.0 mm 0.00 in0.0 mm
11:35 AM 48.5°F9.2°C 25.7°F-3.5°C 41% 10.0 mph E16.1 kmh E 19.0 mph30.6 kmh 30.28 in1025.4 mb 0.00 in0.0 mm 0.00 in0.0 mm 0.00 in0.0 mm
11:40 AM 48.7°F9.3°C 26.5°F-3.1°C 42% 6.9 mph ENE11.1 kmh ENE 17.0 mph27.4 kmh 30.28 in1025.4 mb 0.00 in0.0 mm 0.00 in0.0 mm 0.00 in0.0 mm
11:45 AM 49.3°F9.6°C 27.2°F-2.7°C 42% 6.0 mph E9.7 kmh E 18.0 mph29.0 kmh 30.27 in1025.1 mb 0.00 in0.0 mm 0.00 in0.0 mm 0.00 in0.0 mm
11:50 AM 49.4°F9.7°C 25.3°F-3.7°C 39% 10.4 mph E16.7 kmh E 18.0 mph29.0 kmh 30.28 in1025.4 mb 0.00 in0.0 mm 0.00 in0.0 mm 0.00 in0.0 mm
11:55 AM 49.5°F9.7°C 25.4°F-3.7°C 39% 8.1 mph ENE13.0 kmh ENE 18.0 mph29.0 kmh 30.28 in1025.4 mb 0.00 in0.0 mm 0.00 in0.0 mm 0.00 in0.0 mm
12:00 PM 49.9°F9.9°C 25.1°F-3.8°C 38% 8.2 mph E13.2 kmh E 18.0 mph29.0 kmh 30.28 in1025.4 mb 0.00 in0.0 mm 0.00 in0.0 mm 0.00 in0.0 mm
12:05 PM 49.8°F9.9°C 24.3°F-4.3°C 37% 11.2 mph E18.0 kmh E 17.0 mph27.4 kmh 30.28 in1025.4 mb 0.00 in0.0 mm 0.00 in0.0 mm 0.00 in0.0 mm
12:10 PM 50.4°F10.2°C 26.2°F-3.2°C 39% 7.2 mph E11.6 kmh E 17.0 mph27.4 kmh 30.27 in1025.1 mb 0.00 in0.0 mm 0.00 in0.0 mm 0.00 in0.0 mm
12:15 PM 50.7°F10.4°C 25.1°F-3.8°C 37% 9.0 mph ENE14.5 kmh ENE 18.0 mph29.0 kmh 30.27 in1025.1 mb 0.00 in0.0 mm 0.00 in0.0 mm 0.00 in0.0 mm
12:20 PM 50.9°F10.5°C 24.7°F-4.1°C 36% 8.8 mph NE14.2 kmh NE 18.0 mph29.0 kmh 30.27 in1025.1 mb 0.00 in0.0 mm 0.00 in0.0 mm 0.00 in0.0 mm
12:25 PM 51.4°F10.8°C 25.8°F-3.4°C 37% 5.5 mph ENE8.9 kmh ENE 18.0 mph29.0 kmh 30.27 in1025.1 mb 0.00 in0.0 mm 0.00 in0.0 mm 0.00 in0.0 mm
12:30 PM 51.8°F11.0°C 25.5°F-3.6°C 36% 7.8 mph NE12.6 kmh NE 18.0 mph29.0 kmh 30.27 in1025.1 mb 0.00 in0.0 mm 0.00 in0.0 mm 0.00 in0.0 mm
12:35 PM 52.2°F11.2°C 25.8°F-3.4°C 36% 5.6 mph ENE9.0 kmh ENE 17.0 mph27.4 kmh 30.26 in1024.7 mb 0.00 in0.0 mm 0.00 in0.0 mm 0.00 in0.0 mm
12:40 PM 52.7°F11.5°C 26.9°F-2.8°C 37% 5.9 mph NE9.5 kmh NE 17.0 mph27.4 kmh 30.26 in1024.7 mb 0.00 in0.0 mm 0.00 in0.0 mm 0.00 in0.0 mm
12:45 PM 52.8°F11.6°C 24.2°F-4.3°C 33% 9.2 mph NE14.8 kmh NE 16.0 mph25.7 kmh 30.26 in1024.7 mb 0.00 in0.0 mm 0.00 in0.0 mm 0.00 in0.0 mm
12:50 PM 52.6°F11.4°C 24.8°F-4.0°C 34% 7.3 mph E11.7 kmh E 16.0 mph25.7 kmh 30.26 in1024.7 mb 0.00 in0.0 mm 0.00 in0.0 mm 0.00 in0.0 mm
12:55 PM 53.4°F11.9°C 26.4°F-3.1°C 35% 6.6 mph NE10.6 kmh NE 16.0 mph25.7 kmh 30.26 in1024.7 mb 0.00 in0.0 mm 0.00 in0.0 mm 0.00 in0.0 mm
01:00 PM 53.2°F11.8°C 26.0°F-3.3°C 35% 8.5 mph NE13.7 kmh NE 16.0 mph25.7 kmh 30.26 in1024.7 mb 0.00 in0.0 mm 0.00 in0.0 mm 0.00 in0.0 mm
01:05 PM 53.5°F11.9°C 24.1°F-4.4°C 32% 8.6 mph NE13.8 kmh NE 15.0 mph24.1 kmh 30.25 in1024.4 mb 0.00 in0.0 mm 0.00 in0.0 mm 0.00 in0.0 mm
01:10 PM 54.0°F12.2°C 26.0°F-3.3°C 34% 4.8 mph NE7.7 kmh NE 15.0 mph24.1 kmh 30.25 in1024.4 mb 0.00 in0.0 mm 0.00 in0.0 mm 0.00 in0.0 mm
01:15 PM 53.9°F12.2°C 25.2°F-3.8°C 33% 5.2 mph ENE8.4 kmh ENE 15.0 mph24.1 kmh 30.25 in1024.4 mb 0.00 in0.0 mm 0.00 in0.0 mm 0.00 in0.0 mm
01:20 PM 54.9°F12.7°C 26.8°F-2.9°C 34% 4.2 mph E6.8 kmh E 14.0 mph22.5 kmh 30.24 in1024.0 mb 0.00 in0.0 mm 0.00 in0.0 mm 0.00 in0.0 mm
01:25 PM 55.0°F12.8°C 26.9°F-2.8°C 34% 7.1 mph ENE11.4 kmh ENE 13.0 mph20.9 kmh 30.25 in1024.4 mb 0.00 in0.0 mm 0.00 in0.0 mm 0.00 in0.0 mm
01:30 PM 54.3°F12.4°C 24.8°F-4.0°C 32% 8.4 mph NE13.5 kmh NE 15.0 mph24.1 kmh 30.24 in1024.0 mb 0.00 in0.0 mm 0.00 in0.0 mm 0.00 in0.0 mm
01:35 PM 54.8°F12.7°C 24.5°F-4.2°C 31% 7.8 mph NE12.6 kmh NE 16.0 mph25.7 kmh 30.24 in1024.0 mb 0.00 in0.0 mm 0.00 in0.0 mm 0.00 in0.0 mm
01:40 PM 54.7°F12.6°C 24.4°F-4.2°C 31% 3.5 mph NE5.6 kmh NE 16.0 mph25.7 kmh 30.24 in1024.0 mb 0.00 in0.0 mm 0.00 in0.0 mm 0.00 in0.0 mm
01:45 PM 55.5°F13.1°C 25.9°F-3.4°C 32% 7.7 mph ENE12.4 kmh ENE 16.0 mph25.7 kmh 30.24 in1024.0 mb 0.00 in0.0 mm 0.00 in0.0 mm 0.00 in0.0 mm
01:50 PM 55.4°F13.0°C 26.0°F-3.3°C 32% 7.3 mph ENE11.7 kmh ENE 16.0 mph25.7 kmh 30.24 in1024.0 mb 0.00 in0.0 mm 0.00 in0.0 mm 0.00 in0.0 mm
01:55 PM 55.5°F13.1°C 25.9°F-3.4°C 32% 3.1 mph E5.0 kmh E 13.0 mph20.9 kmh 30.24 in1024.0 mb 0.00 in0.0 mm 0.00 in0.0 mm 0.00 in0.0 mm
02:00 PM 56.3°F13.5°C 26.6°F-3.0°C 32% 7.4 mph NE11.9 kmh NE 13.0 mph20.9 kmh 30.23 in1023.7 mb 0.00 in0.0 mm 0.00 in0.0 mm 0.00 in0.0 mm
02:05 PM 55.8°F13.2°C 26.1°F-3.3°C 32% 2.8 mph NE4.5 kmh NE 14.0 mph22.5 kmh 30.23 in1023.7 mb 0.00 in0.0 mm 0.00 in0.0 mm 0.00 in0.0 mm
02:09 PM 56.4°F13.6°C 24.3°F-4.3°C 29% 6.0 mph E9.7 kmh E 14.0 mph22.5 kmh 30.22 in1023.4 mb 0.00 in0.0 mm 0.00 in0.0 mm 0.00 in0.0 mm
02:14 PM 56.9°F13.8°C 26.5°F-3.1°C 31% 2.7 mph E4.3 kmh E 14.0 mph22.5 kmh 30.23 in1023.7 mb 0.00 in0.0 mm 0.00 in0.0 mm 0.00 in0.0 mm
02:19 PM 57.1°F13.9°C 25.9°F-3.4°C 30% 5.4 mph NE8.7 kmh NE 14.0 mph22.5 kmh 30.22 in1023.4 mb 0.00 in0.0 mm 0.00 in0.0 mm 0.00 in0.0 mm
02:24 PM 57.2°F14.0°C 26.6°F-3.0°C 31% 6.7 mph ENE10.8 kmh ENE 14.0 mph22.5 kmh 30.22 in1023.4 mb 0.00 in0.0 mm 0.00 in0.0 mm 0.00 in0.0 mm
02:29 PM 57.2°F14.0°C 25.0°F-3.9°C 29% 3.5 mph E5.6 kmh E 14.0 mph22.5 kmh 30.22 in1023.4 mb 0.00 in0.0 mm 0.00 in0.0 mm 0.00 in0.0 mm
02:34 PM 57.8°F14.3°C 24.7°F-4.1°C 28% 1.3 mph S2.1 kmh S 14.0 mph22.5 kmh 30.22 in1023.4 mb 0.00 in0.0 mm 0.00 in0.0 mm 0.00 in0.0 mm
02:39 PM 58.4°F14.7°C 26.9°F-2.8°C 30% 4.6 mph ENE7.4 kmh ENE 14.0 mph22.5 kmh 30.21 in1023.0 mb 0.00 in0.0 mm 0.00 in0.0 mm 0.00 in0.0 mm
02:44 PM 57.8°F14.3°C 24.7°F-4.1°C 28% 7.5 mph E12.1 kmh E 14.0 mph22.5 kmh 30.21 in1023.0 mb 0.00 in0.0 mm 0.00 in0.0 mm 0.00 in0.0 mm
02:49 PM 57.6°F14.2°C 23.7°F-4.6°C 27% 7.5 mph E12.1 kmh E 14.0 mph22.5 kmh 30.21 in1023.0 mb 0.00 in0.0 mm 0.00 in0.0 mm 0.00 in0.0 mm
02:54 PM 57.9°F14.4°C 23.9°F-4.5°C 27% 5.8 mph E9.3 kmh E 14.0 mph22.5 kmh 30.21 in1023.0 mb 0.00 in0.0 mm 0.00 in0.0 mm 0.00 in0.0 mm
02:59 PM 58.0°F14.4°C 24.0°F-4.4°C 27% 2.9 mph E4.7 kmh E 14.0 mph22.5 kmh 30.21 in1023.0 mb 0.00 in0.0 mm 0.00 in0.0 mm 0.00 in0.0 mm
03:04 PM 58.0°F14.4°C 24.9°F-3.9°C 28% 6.5 mph NE10.5 kmh NE 13.0 mph20.9 kmh 30.21 in1023.0 mb 0.00 in0.0 mm 0.00 in0.0 mm 0.00 in0.0 mm
03:09 PM 58.0°F14.4°C 24.0°F-4.4°C 27% 11.1 mph NE17.9 kmh NE 17.0 mph27.4 kmh 30.21 in1023.0 mb 0.00 in0.0 mm 0.00 in0.0 mm 0.00 in0.0 mm
03:14 PM 57.7°F14.3°C 25.6°F-3.6°C 29% 5.3 mph NE8.5 kmh NE 17.0 mph27.4 kmh 30.20 in1022.7 mb 0.00 in0.0 mm 0.00 in0.0 mm 0.00 in0.0 mm
03:19 PM 58.1°F14.5°C 26.8°F-2.9°C 30% 5.6 mph ENE9.0 kmh ENE 17.0 mph27.4 kmh 30.20 in1022.7 mb 0.00 in0.0 mm 0.00 in0.0 mm 0.00 in0.0 mm
03:24 PM 58.7°F14.8°C 26.3°F-3.2°C 29% 7.4 mph ENE11.9 kmh ENE 17.0 mph27.4 kmh 30.20 in1022.7 mb 0.00 in0.0 mm 0.00 in0.0 mm 0.00 in0.0 mm
03:29 PM 58.4°F14.7°C 25.2°F-3.8°C 28% 4.4 mph NE7.1 kmh NE 16.0 mph25.7 kmh 30.19 in1022.4 mb 0.00 in0.0 mm 0.00 in0.0 mm 0.00 in0.0 mm
03:34 PM 58.7°F14.8°C 24.8°F-4.0°C 27% 4.5 mph NE7.2 kmh NE 14.0 mph22.5 kmh 30.19 in1022.4 mb 0.00 in0.0 mm 0.00 in0.0 mm 0.00 in0.0 mm
03:39 PM 58.8°F14.9°C 24.9°F-3.9°C 27% 10.9 mph E17.5 kmh E 17.0 mph27.4 kmh 30.19 in1022.4 mb 0.00 in0.0 mm 0.00 in0.0 mm 0.00 in0.0 mm
03:44 PM 58.9°F14.9°C 25.8°F-3.4°C 28% 3.7 mph ENE6.0 kmh ENE 17.0 mph27.4 kmh 30.19 in1022.4 mb 0.00 in0.0 mm 0.00 in0.0 mm 0.00 in0.0 mm
03:49 PM 58.9°F14.9°C 26.5°F-3.1°C 29% 3.1 mph E5.0 kmh E 17.0 mph27.4 kmh 30.19 in1022.4 mb 0.00 in0.0 mm 0.00 in0.0 mm 0.00 in0.0 mm
03:54 PM 58.8°F14.9°C 25.7°F-3.5°C 28% 1.9 mph ENE3.1 kmh ENE 17.0 mph27.4 kmh 30.18 in1022.0 mb 0.00 in0.0 mm 0.00 in0.0 mm 0.00 in0.0 mm
03:59 PM 59.1°F15.1°C 25.8°F-3.4°C 28% 7.9 mph ENE12.7 kmh ENE 16.0 mph25.7 kmh 30.18 in1022.0 mb 0.00 in0.0 mm 0.00 in0.0 mm 0.00 in0.0 mm
04:04 PM 59.3°F15.2°C 26.8°F-2.9°C 29% 5.7 mph NE9.2 kmh NE 13.0 mph20.9 kmh 30.18 in1022.0 mb 0.00 in0.0 mm 0.00 in0.0 mm 0.00 in0.0 mm
04:09 PM 59.6°F15.3°C 27.9°F-2.3°C 30% 4.3 mph ENE6.9 kmh ENE 13.0 mph20.9 kmh 30.18 in1022.0 mb 0.00 in0.0 mm 0.00 in0.0 mm 0.00 in0.0 mm
04:14 PM 59.8°F15.4°C 26.4°F-3.1°C 28% 4.4 mph E7.1 kmh E 13.0 mph20.9 kmh 30.18 in1022.0 mb 0.00 in0.0 mm 0.00 in0.0 mm 0.00 in0.0 mm
04:19 PM 60.1°F15.6°C 26.7°F-2.9°C 28% 7.0 mph E11.3 kmh E 12.0 mph19.3 kmh 30.18 in1022.0 mb 0.00 in0.0 mm 0.00 in0.0 mm 0.00 in0.0 mm
04:24 PM 60.4°F15.8°C 27.8°F-2.3°C 29% 4.1 mph NE6.6 kmh NE 12.0 mph19.3 kmh 30.17 in1021.7 mb 0.00 in0.0 mm 0.00 in0.0 mm 0.00 in0.0 mm
04:29 PM 60.6°F15.9°C 26.2°F-3.2°C 27% 5.3 mph ENE8.5 kmh ENE 12.0 mph19.3 kmh 30.17 in1021.7 mb 0.00 in0.0 mm 0.00 in0.0 mm 0.00 in0.0 mm
04:34 PM 60.6°F15.9°C 27.1°F-2.7°C 28% 4.6 mph E7.4 kmh E 15.0 mph24.1 kmh 30.17 in1021.7 mb 0.00 in0.0 mm 0.00 in0.0 mm 0.00 in0.0 mm
04:39 PM 61.1°F16.2°C 26.7°F-2.9°C 27% 5.3 mph SE8.5 kmh SE 15.0 mph24.1 kmh 30.17 in1021.7 mb 0.00 in0.0 mm 0.00 in0.0 mm 0.00 in0.0 mm
04:44 PM 61.5°F16.4°C 27.9°F-2.3°C 28% 2.5 mph SE4.0 kmh SE 15.0 mph24.1 kmh 30.16 in1021.3 mb 0.00 in0.0 mm 0.00 in0.0 mm 0.00 in0.0 mm
04:49 PM 61.6°F16.4°C 27.1°F-2.7°C 27% 4.8 mph SE7.7 kmh SE 15.0 mph24.1 kmh 30.17 in1021.7 mb 0.00 in0.0 mm 0.00 in0.0 mm 0.00 in0.0 mm
04:54 PM 60.8°F16.0°C 26.4°F-3.1°C 27% 2.7 mph E4.3 kmh E 12.0 mph19.3 kmh 30.17 in1021.7 mb 0.00 in0.0 mm 0.00 in0.0 mm 0.00 in0.0 mm
04:59 PM 60.8°F16.0°C 27.3°F-2.6°C 28% 8.5 mph ENE13.7 kmh ENE 12.0 mph19.3 kmh 30.17 in1021.7 mb 0.00 in0.0 mm 0.00 in0.0 mm 0.00 in0.0 mm
05:04 PM 61.0°F16.1°C 28.3°F-2.1°C 29% 3.7 mph E6.0 kmh E 12.0 mph19.3 kmh 30.16 in1021.3 mb 0.00 in0.0 mm 0.00 in0.0 mm 0.00 in0.0 mm
05:09 PM 61.0°F16.1°C 27.5°F-2.5°C 28% 4.5 mph E7.2 kmh E 12.0 mph19.3 kmh 30.16 in1021.3 mb 0.00 in0.0 mm 0.00 in0.0 mm 0.00 in0.0 mm
05:14 PM 61.0°F16.1°C 27.5°F-2.5°C 28% 3.5 mph E5.6 kmh E 12.0 mph19.3 kmh 30.16 in1021.3 mb 0.00 in0.0 mm 0.00 in0.0 mm 0.00 in0.0 mm
05:19 PM 60.7°F15.9°C 27.2°F-2.7°C 28% 5.9 mph E9.5 kmh E 15.0 mph24.1 kmh 30.16 in1021.3 mb 0.00 in0.0 mm 0.00 in0.0 mm 0.00 in0.0 mm
05:24 PM 61.1°F16.2°C 27.5°F-2.5°C 28% 5.5 mph E8.9 kmh E 15.0 mph24.1 kmh 30.16 in1021.3 mb 0.00 in0.0 mm 0.00 in0.0 mm 0.00 in0.0 mm
05:29 PM 61.2°F16.2°C 27.8°F-2.3°C 28% 2.1 mph S3.4 kmh S 15.0 mph24.1 kmh 30.16 in1021.3 mb 0.00 in0.0 mm 0.00 in0.0 mm 0.00 in0.0 mm
05:34 PM 62.0°F16.7°C 27.4°F-2.6°C 27% 5.1 mph NE8.2 kmh NE 15.0 mph24.1 kmh 30.16 in1021.3 mb 0.00 in0.0 mm 0.00 in0.0 mm 0.00 in0.0 mm
05:39 PM 61.2°F16.2°C 27.6°F-2.4°C 28% 5.4 mph ENE8.7 kmh ENE 10.0 mph16.1 kmh 30.16 in1021.3 mb 0.00 in0.0 mm 0.00 in0.0 mm 0.00 in0.0 mm
05:44 PM 61.0°F16.1°C 29.1°F-1.6°C 30% 3.3 mph E5.3 kmh E 10.0 mph16.1 kmh 30.16 in1021.3 mb 0.00 in0.0 mm 0.00 in0.0 mm 0.00 in0.0 mm
05:49 PM 61.1°F16.2°C 27.5°F-2.5°C 28% 4.4 mph E7.1 kmh E 10.0 mph16.1 kmh 30.16 in1021.3 mb 0.00 in0.0 mm 0.00 in0.0 mm 0.00 in0.0 mm
05:54 PM 61.1°F16.2°C 27.5°F-2.5°C 28% 4.7 mph E7.6 kmh E 12.0 mph19.3 kmh 30.16 in1021.3 mb 0.00 in0.0 mm 0.00 in0.0 mm 0.00 in0.0 mm
05:59 PM 61.1°F16.2°C 27.7°F-2.4°C 28% 5.1 mph E8.2 kmh E 12.0 mph19.3 kmh 30.15 in1021.0 mb 0.00 in0.0 mm 0.00 in0.0 mm 0.00 in0.0 mm
06:04 PM 60.9°F16.1°C 28.2°F-2.1°C 29% 3.7 mph ENE6.0 kmh ENE 12.0 mph19.3 kmh 30.15 in1021.0 mb 0.00 in0.0 mm 0.00 in0.0 mm 0.00 in0.0 mm
06:09 PM 61.2°F16.2°C 28.5°F-1.9°C 29% 3.8 mph E6.1 kmh E 12.0 mph19.3 kmh 30.16 in1021.3 mb 0.00 in0.0 mm 0.00 in0.0 mm 0.00 in0.0 mm
06:14 PM 61.5°F16.4°C 28.7°F-1.8°C 29% 2.7 mph SE4.3 kmh SE 10.0 mph16.1 kmh 30.16 in1021.3 mb 0.00 in0.0 mm 0.00 in0.0 mm 0.00 in0.0 mm
06:19 PM 61.9°F16.6°C 28.2°F-2.1°C 28% 1.0 mph SSE1.6 kmh SSE 10.0 mph16.1 kmh 30.16 in1021.3 mb 0.00 in0.0 mm 0.00 in0.0 mm 0.00 in0.0 mm
06:24 PM 61.6°F16.4°C 28.0°F-2.2°C 28% 2.8 mph SE4.5 kmh SE 9.0 mph14.5 kmh 30.15 in1021.0 mb 0.00 in0.0 mm 0.00 in0.0 mm 0.00 in0.0 mm
06:29 PM 61.4°F16.3°C 27.8°F-2.3°C 28% 2.6 mph E4.2 kmh E 8.0 mph12.9 kmh 30.15 in1021.0 mb 0.00 in0.0 mm 0.00 in0.0 mm 0.00 in0.0 mm
06:34 PM 61.5°F16.4°C 28.7°F-1.8°C 29% 3.4 mph ENE5.5 kmh ENE 8.0 mph12.9 kmh 30.16 in1021.3 mb 0.00 in0.0 mm 0.00 in0.0 mm 0.00 in0.0 mm
06:39 PM 61.2°F16.2°C 28.5°F-1.9°C 29% 6.3 mph ENE10.1 kmh ENE 12.0 mph19.3 kmh 30.15 in1021.0 mb 0.00 in0.0 mm 0.00 in0.0 mm 0.00 in0.0 mm
06:44 PM 60.9°F16.1°C 27.4°F-2.6°C 28% 5.3 mph ENE8.5 kmh ENE 12.0 mph19.3 kmh 30.16 in1021.3 mb 0.00 in0.0 mm 0.00 in0.0 mm 0.00 in0.0 mm
06:49 PM 60.8°F16.0°C 28.1°F-2.2°C 29% 6.2 mph E10.0 kmh E 12.0 mph19.3 kmh 30.15 in1021.0 mb 0.00 in0.0 mm 0.00 in0.0 mm 0.00 in0.0 mm
06:54 PM 60.6°F15.9°C 28.1°F-2.2°C 29% 4.8 mph NE7.7 kmh NE 12.0 mph19.3 kmh 30.15 in1021.0 mb 0.00 in0.0 mm 0.00 in0.0 mm 0.00 in0.0 mm
06:59 PM 60.6°F15.9°C 28.1°F-2.2°C 29% 5.2 mph ENE8.4 kmh ENE 11.0 mph17.7 kmh 30.15 in1021.0 mb 0.00 in0.0 mm 0.00 in0.0 mm 0.00 in0.0 mm
07:04 PM 60.5°F15.8°C 28.7°F-1.8°C 30% 2.8 mph E4.5 kmh E 9.0 mph14.5 kmh 30.15 in1021.0 mb 0.00 in0.0 mm 0.00 in0.0 mm 0.00 in0.0 mm
07:09 PM 60.6°F15.9°C 28.8°F-1.8°C 30% 2.9 mph E4.7 kmh E 9.0 mph14.5 kmh 30.15 in1021.0 mb 0.00 in0.0 mm 0.00 in0.0 mm 0.00 in0.0 mm
07:14 PM 60.5°F15.8°C 28.7°F-1.8°C 30% 2.5 mph ESE4.0 kmh ESE 9.0 mph14.5 kmh 30.15 in1021.0 mb 0.00 in0.0 mm 0.00 in0.0 mm 0.00 in0.0 mm
07:19 PM 60.3°F15.7°C 28.5°F-1.9°C 30% 3.8 mph SE6.1 kmh SE 7.0 mph11.3 kmh 30.15 in1021.0 mb 0.00 in0.0 mm 0.00 in0.0 mm 0.00 in0.0 mm
07:24 PM 60.2°F15.7°C 29.2°F-1.6°C 31% 2.9 mph ESE4.7 kmh ESE 7.0 mph11.3 kmh 30.15 in1021.0 mb 0.00 in0.0 mm 0.00 in0.0 mm 0.00 in0.0 mm
07:29 PM 60.0°F15.6°C 29.0°F-1.7°C 31% 3.6 mph E5.8 kmh E 8.0 mph12.9 kmh 30.15 in1021.0 mb 0.00 in0.0 mm 0.00 in0.0 mm 0.00 in0.0 mm
07:34 PM 59.7°F15.4°C 29.6°F-1.3°C 32% 4.1 mph E6.6 kmh E 9.0 mph14.5 kmh 30.15 in1021.0 mb 0.00 in0.0 mm 0.00 in0.0 mm 0.00 in0.0 mm
07:39 PM 59.4°F15.2°C 29.3°F-1.5°C 32% 3.6 mph E5.8 kmh E 9.0 mph14.5 kmh 30.15 in1021.0 mb 0.00 in0.0 mm 0.00 in0.0 mm 0.00 in0.0 mm
07:44 PM 59.0°F15.0°C 29.7°F-1.3°C 33% 1.9 mph ESE3.1 kmh ESE 9.0 mph14.5 kmh 30.15 in1021.0 mb 0.00 in0.0 mm 0.00 in0.0 mm 0.00 in0.0 mm
07:49 PM 58.6°F14.8°C 29.6°F-1.3°C 33% 2.6 mph ESE4.2 kmh ESE 9.0 mph14.5 kmh 30.15 in1021.0 mb 0.00 in0.0 mm 0.00 in0.0 mm 0.00 in0.0 mm
07:54 PM 58.3°F14.6°C 29.3°F-1.5°C 33% 2.9 mph E4.7 kmh E 8.0 mph12.9 kmh 30.15 in1021.0 mb 0.00 in0.0 mm 0.00 in0.0 mm 0.00 in0.0 mm
07:59 PM 58.0°F14.4°C 29.8°F-1.2°C 34% 2.6 mph E4.2 kmh E 7.0 mph11.3 kmh 30.16 in1021.3 mb 0.00 in0.0 mm 0.00 in0.0 mm 0.00 in0.0 mm
08:04 PM 57.7°F14.3°C 30.2°F-1.0°C 35% 1.9 mph E3.1 kmh E 7.0 mph11.3 kmh 30.16 in1021.3 mb 0.00 in0.0 mm 0.00 in0.0 mm 0.00 in0.0 mm
08:08 PM 57.4°F14.1°C 29.7°F-1.3°C 35% 1.8 mph E2.9 kmh E 7.0 mph11.3 kmh 30.16 in1021.3 mb 0.00 in0.0 mm 0.00 in0.0 mm 0.00 in0.0 mm
08:13 PM 57.2°F14.0°C 30.3°F-0.9°C 36% 1.5 mph E2.4 kmh E 5.0 mph8.0 kmh 30.16 in1021.3 mb 0.00 in0.0 mm 0.00 in0.0 mm 0.00 in0.0 mm
08:18 PM 56.8°F13.8°C 29.9°F-1.2°C 36% 2.1 mph E3.4 kmh E 4.0 mph6.4 kmh 30.16 in1021.3 mb 0.00 in0.0 mm 0.00 in0.0 mm 0.00 in0.0 mm
08:23 PM 56.6°F13.7°C 30.4°F-0.9°C 37% 1.0 mph E1.6 kmh E 4.0 mph6.4 kmh 30.17 in1021.7 mb 0.00 in0.0 mm 0.00 in0.0 mm 0.00 in0.0 mm
08:28 PM 56.5°F13.6°C 30.3°F-0.9°C 37% 1.8 mph E2.9 kmh E 4.0 mph6.4 kmh 30.17 in1021.7 mb 0.00 in0.0 mm 0.00 in0.0 mm 0.00 in0.0 mm
08:33 PM 56.2°F13.4°C 30.7°F-0.7°C 38% 1.8 mph E2.9 kmh E 4.0 mph6.4 kmh 30.17 in1021.7 mb 0.00 in0.0 mm 0.00 in0.0 mm 0.00 in0.0 mm
08:38 PM 55.9°F13.3°C 30.5°F-0.8°C 38% 1.0 mph ESE1.6 kmh ESE 3.0 mph4.8 kmh 30.17 in1021.7 mb 0.00 in0.0 mm 0.00 in0.0 mm 0.00 in0.0 mm
08:43 PM 55.7°F13.2°C 30.9°F-0.6°C 39% 1.4 mph E2.3 kmh E 3.0 mph4.8 kmh 30.17 in1021.7 mb 0.00 in0.0 mm 0.00 in0.0 mm 0.00 in0.0 mm
08:48 PM 55.4°F13.0°C 30.8°F-0.7°C 39% 1.7 mph E2.7 kmh E 3.0 mph4.8 kmh 30.17 in1021.7 mb 0.00 in0.0 mm 0.00 in0.0 mm 0.00 in0.0 mm
08:53 PM 55.2°F12.9°C 31.1°F-0.5°C 40% 1.9 mph E3.1 kmh E 4.0 mph6.4 kmh 30.17 in1021.7 mb 0.00 in0.0 mm 0.00 in0.0 mm 0.00 in0.0 mm
08:58 PM 55.1°F12.8°C 31.0°F-0.6°C 40% 3.2 mph E5.1 kmh E 6.0 mph9.7 kmh 30.17 in1021.7 mb 0.00 in0.0 mm 0.00 in0.0 mm 0.00 in0.0 mm
09:03 PM 54.9°F12.7°C 30.8°F-0.7°C 40% 2.2 mph E3.5 kmh E 6.0 mph9.7 kmh 30.17 in1021.7 mb 0.00 in0.0 mm 0.00 in0.0 mm 0.00 in0.0 mm
09:08 PM 54.7°F12.6°C 31.3°F-0.4°C 41% 3.3 mph E5.3 kmh E 6.0 mph9.7 kmh 30.17 in1021.7 mb 0.00 in0.0 mm 0.00 in0.0 mm 0.00 in0.0 mm
09:13 PM 54.6°F12.6°C 31.3°F-0.4°C 41% 2.6 mph E4.2 kmh E 6.0 mph9.7 kmh 30.17 in1021.7 mb 0.00 in0.0 mm 0.00 in0.0 mm 0.00 in0.0 mm
09:18 PM 54.5°F12.5°C 31.1°F-0.5°C 41% 2.6 mph E4.2 kmh E 6.0 mph9.7 kmh 30.17 in1021.7 mb 0.00 in0.0 mm 0.00 in0.0 mm 0.00 in0.0 mm
09:23 PM 54.3°F12.4°C 31.5°F-0.3°C 42% 3.0 mph E4.8 kmh E 6.0 mph9.7 kmh 30.17 in1021.7 mb 0.00 in0.0 mm 0.00 in0.0 mm 0.00 in0.0 mm
09:28 PM 54.2°F12.3°C 31.5°F-0.3°C 42% 2.6 mph E4.2 kmh E 6.0 mph9.7 kmh 30.17 in1021.7 mb 0.00 in0.0 mm 0.00 in0.0 mm 0.00 in0.0 mm
09:33 PM 54.1°F12.3°C 31.5°F-0.3°C 42% 2.7 mph E4.3 kmh E 6.0 mph9.7 kmh 30.17 in1021.7 mb 0.00 in0.0 mm 0.00 in0.0 mm 0.00 in0.0 mm
09:38 PM 54.1°F12.3°C 31.4°F-0.3°C 42% 3.9 mph E6.3 kmh E 6.0 mph9.7 kmh 30.17 in1021.7 mb 0.00 in0.0 mm 0.00 in0.0 mm 0.00 in0.0 mm
09:43 PM 54.0°F12.2°C 31.3°F-0.4°C 42% 3.4 mph E5.5 kmh E 6.0 mph9.7 kmh 30.17 in1021.7 mb 0.00 in0.0 mm 0.00 in0.0 mm 0.00 in0.0 mm
09:48 PM 53.9°F12.2°C 31.3°F-0.4°C 42% 3.3 mph E5.3 kmh E 8.0 mph12.9 kmh 30.17 in1021.7 mb 0.00 in0.0 mm 0.00 in0.0 mm 0.00 in0.0 mm
09:53 PM 53.9°F12.2°C 31.9°F-0.1°C 43% 3.6 mph E5.8 kmh E 8.0 mph12.9 kmh 30.17 in1021.7 mb 0.00 in0.0 mm 0.00 in0.0 mm 0.00 in0.0 mm
09:58 PM 53.7°F12.1°C 31.6°F-0.2°C 43% 3.7 mph E6.0 kmh E 8.0 mph12.9 kmh 30.17 in1021.7 mb 0.00 in0.0 mm 0.00 in0.0 mm 0.00 in0.0 mm
10:03 PM 53.5°F11.9°C 31.4°F-0.3°C 43% 1.9 mph E3.1 kmh E 8.0 mph12.9 kmh 30.17 in1021.7 mb 0.00 in0.0 mm 0.00 in0.0 mm 0.00 in0.0 mm
10:08 PM 53.3°F11.8°C 31.8°F-0.1°C 44% 2.2 mph E3.5 kmh E 7.0 mph11.3 kmh 30.17 in1021.7 mb 0.00 in0.0 mm 0.00 in0.0 mm 0.00 in0.0 mm
10:13 PM 53.2°F11.8°C 31.7°F-0.2°C 44% 3.9 mph E6.3 kmh E 7.0 mph11.3 kmh 30.17 in1021.7 mb 0.00 in0.0 mm 0.00 in0.0 mm 0.00 in0.0 mm
10:18 PM 53.0°F11.7°C 31.6°F-0.2°C 44% 2.5 mph E4.0 kmh E 7.0 mph11.3 kmh 30.17 in1021.7 mb 0.00 in0.0 mm 0.00 in0.0 mm 0.00 in0.0 mm
10:23 PM 52.9°F11.6°C 31.5°F-0.3°C 44% 3.3 mph E5.3 kmh E 7.0 mph11.3 kmh 30.17 in1021.7 mb 0.00 in0.0 mm 0.00 in0.0 mm 0.00 in0.0 mm
10:28 PM 52.9°F11.6°C 31.5°F-0.3°C 44% 3.5 mph E5.6 kmh E 8.0 mph12.9 kmh 30.18 in1022.0 mb 0.00 in0.0 mm 0.00 in0.0 mm 0.00 in0.0 mm
10:33 PM 52.8°F11.6°C 31.4°F-0.3°C 44% 2.2 mph E3.5 kmh E 8.0 mph12.9 kmh 30.18 in1022.0 mb 0.00 in0.0 mm 0.00 in0.0 mm 0.00 in0.0 mm
10:38 PM 52.8°F11.6°C 31.4°F-0.3°C 44% 2.8 mph E4.5 kmh E 8.0 mph12.9 kmh 30.18 in1022.0 mb 0.00 in0.0 mm 0.00 in0.0 mm 0.00 in0.0 mm
10:43 PM 52.8°F11.6°C 31.9°F-0.1°C 45% 3.0 mph E4.8 kmh E 8.0 mph12.9 kmh 30.18 in1022.0 mb 0.00 in0.0 mm 0.00 in0.0 mm 0.00 in0.0 mm
10:48 PM 52.8°F11.6°C 31.9°F-0.1°C 45% 2.0 mph E3.2 kmh E 9.0 mph14.5 kmh 30.18 in1022.0 mb 0.00 in0.0 mm 0.00 in0.0 mm 0.00 in0.0 mm
10:53 PM 52.7°F11.5°C 31.9°F-0.1°C 45% 2.8 mph E4.5 kmh E 9.0 mph14.5 kmh 30.18 in1022.0 mb 0.00 in0.0 mm 0.00 in0.0 mm 0.00 in0.0 mm
10:58 PM 52.6°F11.4°C 31.8°F-0.1°C 45% 1.5 mph E2.4 kmh E 9.0 mph14.5 kmh 30.18 in1022.0 mb 0.00 in0.0 mm 0.00 in0.0 mm 0.00 in0.0 mm
11:03 PM 52.6°F11.4°C 31.8°F-0.1°C 45% 3.4 mph ESE5.5 kmh ESE 7.0 mph11.3 kmh 30.18 in1022.0 mb 0.00 in0.0 mm 0.00 in0.0 mm 0.00 in0.0 mm
11:08 PM 52.5°F11.4°C 31.7°F-0.2°C 45% 3.6 mph ESE5.8 kmh ESE 9.0 mph14.5 kmh 30.18 in1022.0 mb 0.00 in0.0 mm 0.00 in0.0 mm 0.00 in0.0 mm
11:14 PM 52.5°F11.4°C 32.2°F0.1°C 46% 3.4 mph E5.5 kmh E 9.0 mph14.5 kmh 30.18 in1022.0 mb 0.00 in0.0 mm 0.00 in0.0 mm 0.00 in0.0 mm
11:19 PM 52.5°F11.4°C 32.2°F0.1°C 46% 2.0 mph E3.2 kmh E 9.0 mph14.5 kmh 30.18 in1022.0 mb 0.00 in0.0 mm 0.00 in0.0 mm 0.00 in0.0 mm
11:24 PM 52.4°F11.3°C 32.1°F0.1°C 46% 1.9 mph E3.1 kmh E 9.0 mph14.5 kmh 30.18 in1022.0 mb 0.00 in0.0 mm 0.00 in0.0 mm 0.00 in0.0 mm
11:29 PM 52.4°F11.3°C 32.1°F0.1°C 46% 2.1 mph E3.4 kmh E 9.0 mph14.5 kmh 30.19 in1022.4 mb 0.00 in0.0 mm 0.00 in0.0 mm 0.00 in0.0 mm
11:34 PM 52.3°F11.3°C 32.1°F0.1°C 46% 2.0 mph E3.2 kmh E 9.0 mph14.5 kmh 30.18 in1022.0 mb 0.00 in0.0 mm 0.00 in0.0 mm 0.00 in0.0 mm
11:39 PM 52.3°F11.3°C 32.1°F0.1°C 46% 2.4 mph E3.9 kmh E 7.0 mph11.3 kmh 30.18 in1022.0 mb 0.00 in0.0 mm 0.00 in0.0 mm 0.00 in0.0 mm
11:44 PM 52.2°F11.2°C 32.5°F0.3°C 47% 2.3 mph ESE3.7 kmh ESE 6.0 mph9.7 kmh 30.18 in1022.0 mb 0.00 in0.0 mm 0.00 in0.0 mm 0.00 in0.0 mm
11:49 PM 52.2°F11.2°C 31.9°F-0.1°C 46% 1.7 mph E2.7 kmh E 6.0 mph9.7 kmh 30.18 in1022.0 mb 0.00 in0.0 mm 0.00 in0.0 mm 0.00 in0.0 mm
11:54 PM 52.1°F11.2°C 32.4°F0.2°C 47% 2.1 mph ENE3.4 kmh ENE 6.0 mph9.7 kmh 30.18 in1022.0 mb 0.00 in0.0 mm 0.00 in0.0 mm 0.00 in0.0 mm
11:59 PM 52.0°F11.1°C 32.3°F0.2°C 47% 1.8 mph E2.9 kmh E 5.0 mph8.0 kmh 30.18 in1022.0 mb 0.00 in0.0 mm 0.00 in0.0 mm 0.00 in0.0 mm